createdAt,value
2023-04-12T00:01:28.970Z,82.00
2023-04-12T00:04:00.333Z,82.00
2023-04-12T00:06:32.672Z,82.00
2023-04-12T00:09:01.949Z,81.90
2023-04-12T00:11:33.172Z,81.90
2023-04-12T00:14:02.010Z,81.80
2023-04-12T00:16:31.080Z,81.90
2023-04-12T00:19:01.845Z,81.80
2023-04-12T00:21:30.951Z,81.80
2023-04-12T00:24:00.287Z,81.70
2023-04-12T00:26:29.823Z,81.80
2023-04-12T00:28:58.789Z,81.60
2023-04-12T00:31:28.062Z,81.60
2023-04-12T00:33:57.362Z,81.60
2023-04-12T00:36:29.526Z,81.50
2023-04-12T00:38:58.557Z,81.40
2023-04-12T00:41:28.383Z,81.50
2023-04-12T00:43:57.678Z,81.40
2023-04-12T00:46:26.947Z,81.20
2023-04-12T00:48:56.972Z,81.20
2023-04-12T00:51:26.567Z,81.20
2023-04-12T00:53:58.774Z,81.20
2023-04-12T00:56:28.644Z,81.10
2023-04-12T00:58:58.495Z,81.00
2023-04-12T01:01:28.341Z,81.00
2023-04-12T01:04:01.507Z,81.10
2023-04-12T01:06:44.878Z,81.00
2023-04-12T01:09:22.627Z,81.00
2023-04-12T01:12:11.746Z,80.90
2023-04-12T01:14:56.394Z,80.90
2023-04-12T01:17:27.894Z,80.80
2023-04-12T01:19:59.195Z,80.70
2023-04-12T01:22:39.491Z,80.80
2023-04-12T01:25:34.694Z,80.50
2023-04-12T01:28:07.009Z,80.50
2023-04-12T01:30:36.765Z,80.50
2023-04-12T01:33:09.233Z,80.60
2023-04-12T01:35:40.993Z,80.60
2023-04-12T01:38:11.481Z,80.50
2023-04-12T01:40:42.645Z,80.50
2023-04-12T01:43:14.959Z,80.40
2023-04-12T01:45:44.162Z,80.20
2023-04-12T01:48:14.269Z,80.20
2023-04-12T01:50:51.115Z,80.20
2023-04-12T01:53:24.072Z,80.10
2023-04-12T01:55:58.018Z,80.00
2023-04-12T01:58:30.124Z,79.80
2023-04-12T02:01:01.355Z,79.70
2023-04-12T02:03:31.690Z,79.60
2023-04-12T02:06:01.350Z,79.60
2023-04-12T02:08:31.186Z,79.60
2023-04-12T02:11:00.214Z,79.70
2023-04-12T02:13:30.600Z,79.70
2023-04-12T02:15:59.790Z,79.80
2023-04-12T02:18:29.015Z,79.90
2023-04-12T02:20:59.125Z,79.90
2023-04-12T02:23:28.184Z,80.00
2023-04-12T02:25:57.235Z,80.10
2023-04-12T02:28:26.495Z,80.10
2023-04-12T02:30:57.101Z,80.00
2023-04-12T02:33:28.299Z,80.00
2023-04-12T02:35:59.552Z,80.00
2023-04-12T02:38:28.839Z,80.10
2023-04-12T02:40:59.154Z,80.00
2023-04-12T02:43:28.374Z,80.00
2023-04-12T02:46:04.290Z,80.00
2023-04-12T02:48:40.748Z,80.10
2023-04-12T02:51:10.257Z,80.00
2023-04-12T02:53:41.006Z,80.10
2023-04-12T02:56:19.716Z,80.10
2023-04-12T02:58:52.641Z,80.20
2023-04-12T03:01:55.115Z,80.20
2023-04-12T03:04:30.930Z,80.10
2023-04-12T03:07:02.811Z,80.00
2023-04-12T03:09:42.708Z,80.00
2023-04-12T03:12:12.759Z,80.00
2023-04-12T03:14:49.773Z,80.10
2023-04-12T03:17:21.281Z,80.00
2023-04-12T03:19:50.680Z,80.00
2023-04-12T03:22:23.048Z,79.90
2023-04-12T03:24:56.550Z,79.80
2023-04-12T03:27:25.601Z,79.60
2023-04-12T03:29:56.475Z,79.60
2023-04-12T03:32:28.206Z,79.60
2023-04-12T03:35:00.237Z,79.50
2023-04-12T03:37:29.253Z,79.50
2023-04-12T03:39:59.427Z,79.50
2023-04-12T03:42:33.681Z,79.30
2023-04-12T03:45:13.591Z,79.20
2023-04-12T03:47:47.809Z,79.10
2023-04-12T03:50:19.031Z,79.10
2023-04-12T03:52:54.970Z,79.00
2023-04-12T03:55:29.094Z,79.00
2023-04-12T03:57:59.370Z,78.90
2023-04-12T04:00:33.617Z,78.80
2023-04-12T04:03:10.697Z,78.80
2023-04-12T04:06:03.044Z,78.80
2023-04-12T04:08:34.302Z,78.70
2023-04-12T04:11:03.274Z,78.40
2023-04-12T04:13:39.633Z,78.40
2023-04-12T04:16:11.196Z,78.30
2023-04-12T04:18:43.751Z,78.30
2023-04-12T04:21:15.856Z,78.20
2023-04-12T04:23:48.061Z,78.20
2023-04-12T04:26:18.239Z,78.10
2023-04-12T04:28:54.598Z,78.10
2023-04-12T04:31:34.233Z,77.90
2023-04-12T04:34:07.024Z,77.90
2023-04-12T04:36:43.776Z,77.60
2023-04-12T04:39:13.792Z,77.40
2023-04-12T04:41:46.872Z,77.40
2023-04-12T04:44:27.062Z,77.50
2023-04-12T04:46:59.222Z,77.50
2023-04-12T04:49:29.653Z,77.50
2023-04-12T04:52:05.318Z,77.60
2023-04-12T04:54:34.376Z,77.60
2023-04-12T04:57:07.967Z,77.60
2023-04-12T04:59:37.888Z,77.60
2023-04-12T05:02:19.256Z,77.60
2023-04-12T05:04:49.705Z,77.60
2023-04-12T05:07:21.569Z,77.50
2023-04-12T05:09:52.051Z,77.40
2023-04-12T05:12:22.666Z,77.30
2023-04-12T05:15:10.709Z,77.20
2023-04-12T05:17:41.753Z,77.20
2023-04-12T05:20:12.660Z,77.00
2023-04-12T05:22:41.736Z,76.90
2023-04-12T05:25:11.664Z,76.80
2023-04-12T05:27:52.020Z,76.60
2023-04-12T05:30:22.539Z,76.60
2023-04-12T05:32:52.635Z,76.60
2023-04-12T05:35:24.129Z,76.60
2023-04-12T05:37:58.936Z,76.60
2023-04-12T05:40:28.085Z,76.80
2023-04-12T05:42:57.469Z,76.90
2023-04-12T05:45:27.747Z,76.90
2023-04-12T05:47:57.184Z,76.80
2023-04-12T05:50:28.091Z,77.00
2023-04-12T05:52:57.633Z,77.00
2023-04-12T05:55:31.350Z,77.10
2023-04-12T05:58:01.279Z,77.10
2023-04-12T06:00:31.346Z,77.20
2023-04-12T06:03:00.643Z,77.30
2023-04-12T06:05:31.512Z,77.30
2023-04-12T06:08:00.999Z,77.60
2023-04-12T06:10:30.040Z,77.60
2023-04-12T06:12:59.296Z,77.70
2023-04-12T06:15:29.374Z,77.70
2023-04-12T06:17:58.663Z,77.90
2023-04-12T06:20:27.863Z,78.00
2023-04-12T06:22:58.612Z,78.30
2023-04-12T06:25:27.929Z,78.60
2023-04-12T06:27:57.918Z,78.90
2023-04-12T06:30:28.171Z,79.10
2023-04-12T06:32:57.898Z,79.40
2023-04-12T06:35:27.095Z,79.80
2023-04-12T06:37:56.251Z,80.20
2023-04-12T06:40:26.880Z,80.60
2023-04-12T06:42:56.569Z,81.10
2023-04-12T06:45:26.120Z,81.40
2023-04-12T06:47:57.016Z,81.90
2023-04-12T06:50:27.219Z,82.20
2023-04-12T06:52:56.280Z,82.70
2023-04-12T06:55:29.281Z,83.00
2023-04-12T06:57:58.375Z,83.30
2023-04-12T07:00:27.707Z,83.50
2023-04-12T07:02:56.870Z,83.80
2023-04-12T07:05:26.045Z,84.00
2023-04-12T07:07:55.116Z,84.30
2023-04-12T07:10:24.183Z,84.50
2023-04-12T07:12:54.578Z,84.80
2023-04-12T07:15:23.635Z,85.00
2023-04-12T07:17:52.663Z,85.10
2023-04-12T07:20:21.927Z,85.20
2023-04-12T07:22:50.977Z,85.20
2023-04-12T07:25:20.021Z,85.40
2023-04-12T07:27:50.581Z,85.60
2023-04-12T07:30:22.561Z,85.80
2023-04-12T07:32:51.678Z,86.00
2023-04-12T07:35:21.024Z,86.00
2023-04-12T07:37:50.050Z,86.20
2023-04-12T07:40:19.140Z,86.20
2023-04-12T07:42:48.208Z,86.40
2023-04-12T07:45:17.443Z,86.40
2023-04-12T07:47:47.933Z,86.50
2023-04-12T07:50:17.005Z,86.60
2023-04-12T07:52:46.112Z,86.80
2023-04-12T07:55:15.157Z,87.00
2023-04-12T07:57:44.198Z,87.10
2023-04-12T08:00:14.188Z,87.10
2023-04-12T08:02:43.367Z,87.20
2023-04-12T08:05:14.045Z,88.10
2023-04-12T08:07:43.424Z,87.30
2023-04-12T08:10:12.642Z,87.40
2023-04-12T08:12:41.628Z,87.50
2023-04-12T08:15:11.171Z,87.60
2023-04-12T08:17:40.649Z,87.50
2023-04-12T08:20:10.327Z,87.50
2023-04-12T08:22:40.843Z,87.60
2023-04-12T08:25:10.741Z,87.60
2023-04-12T08:27:41.491Z,87.50
2023-04-12T08:30:11.674Z,87.40
2023-04-12T08:32:41.706Z,87.40
2023-04-12T08:35:11.559Z,87.50
2023-04-12T08:37:41.990Z,87.60
2023-04-12T08:40:11.578Z,87.80
2023-04-12T08:42:40.574Z,88.00
2023-04-12T08:45:11.732Z,89.00
2023-04-12T08:47:44.590Z,88.20
2023-04-12T08:50:14.840Z,88.20
2023-04-12T08:52:45.213Z,88.10
2023-04-12T08:55:14.254Z,88.20
2023-04-12T08:57:43.690Z,88.30
2023-04-12T09:00:14.751Z,88.20
2023-04-12T09:02:47.287Z,87.90
2023-04-12T09:05:16.622Z,87.80
2023-04-12T09:07:47.147Z,87.60
2023-04-12T09:10:32.727Z,87.60
2023-04-12T09:13:02.245Z,87.60
2023-04-12T09:15:31.864Z,87.70
2023-04-12T09:18:06.947Z,87.80
2023-04-12T09:20:36.578Z,87.60
2023-04-12T09:23:20.453Z,87.50
2023-04-12T09:25:52.108Z,87.30
2023-04-12T09:28:23.708Z,87.10
2023-04-12T09:30:53.383Z,87.30
2023-04-12T09:33:23.614Z,87.10
2023-04-12T09:36:01.103Z,87.20
2023-04-12T09:38:32.017Z,87.30
2023-04-12T09:41:21.322Z,87.40
2023-04-12T09:43:52.799Z,87.60
2023-04-12T09:46:22.920Z,87.30
2023-04-12T09:48:54.683Z,87.30
2023-04-12T09:51:29.319Z,87.00
2023-04-12T09:54:02.182Z,86.60
2023-04-12T09:56:32.781Z,86.30
2023-04-12T09:59:04.130Z,86.30
2023-04-12T10:01:36.903Z,85.80
2023-04-12T10:04:08.879Z,85.30
2023-04-12T10:06:38.452Z,84.70
2023-04-12T10:09:09.247Z,84.50
2023-04-12T10:11:42.714Z,84.50
2023-04-12T10:14:13.762Z,84.30
2023-04-12T10:16:46.283Z,84.20
2023-04-12T10:19:16.489Z,84.10
2023-04-12T10:21:45.556Z,83.80
2023-04-12T10:24:17.481Z,83.70
2023-04-12T10:26:46.577Z,83.30
2023-04-12T10:29:29.006Z,83.10
2023-04-12T10:31:59.322Z,82.70
2023-04-12T10:34:32.281Z,83.50
2023-04-12T10:37:02.950Z,82.50
2023-04-12T10:39:41.770Z,82.50
2023-04-12T10:42:23.036Z,82.40
2023-04-12T10:44:53.416Z,82.20
2023-04-12T10:48:02.054Z,82.10
2023-04-12T10:50:32.507Z,81.60
2023-04-12T10:53:26.258Z,81.60
2023-04-12T10:55:56.738Z,81.20
2023-04-12T10:58:56.703Z,81.20
2023-04-12T11:01:27.123Z,81.00
2023-04-12T11:04:15.193Z,81.10
2023-04-12T11:06:52.519Z,81.20
2023-04-12T11:09:43.898Z,81.10
2023-04-12T11:12:28.031Z,81.00
2023-04-12T11:15:02.281Z,80.90
2023-04-12T11:17:56.290Z,80.60
2023-04-12T11:20:28.314Z,80.10
2023-04-12T11:22:57.821Z,79.50
2023-04-12T11:25:27.815Z,79.20
2023-04-12T11:27:58.291Z,79.00
2023-04-12T11:30:31.679Z,78.80
2023-04-12T11:33:00.739Z,78.50
2023-04-12T11:35:30.490Z,78.20
2023-04-12T11:37:59.903Z,78.20
2023-04-12T11:40:29.426Z,77.90
2023-04-12T11:42:59.883Z,77.40
2023-04-12T11:45:29.522Z,77.20
2023-04-12T11:47:59.484Z,76.80
2023-04-12T11:50:32.595Z,76.10
2023-04-12T11:53:12.690Z,75.50
2023-04-12T11:55:42.303Z,75.40
2023-04-12T11:58:12.830Z,75.70
2023-04-12T12:00:43.426Z,75.80
2023-04-12T12:03:13.118Z,75.90
2023-04-12T12:05:43.906Z,75.70
2023-04-12T12:08:13.975Z,75.40
2023-04-12T12:10:59.786Z,75.10
2023-04-12T12:13:47.682Z,75.10
2023-04-12T12:16:17.718Z,75.00
2023-04-12T12:18:52.701Z,75.00
2023-04-12T12:21:22.861Z,75.10
2023-04-12T12:23:51.962Z,75.10
2023-04-12T12:26:22.772Z,75.20
2023-04-12T12:28:54.615Z,75.00
2023-04-12T12:31:24.923Z,74.70
2023-04-12T12:33:57.011Z,74.50
2023-04-12T12:36:33.594Z,74.20
2023-04-12T12:39:10.697Z,74.10
2023-04-12T12:41:40.701Z,74.10
2023-04-12T12:44:12.784Z,74.10
2023-04-12T12:49:13.827Z,74.00
2023-04-12T12:51:43.433Z,74.00
2023-04-12T12:54:12.647Z,74.00
2023-04-12T12:56:42.256Z,73.70
2023-04-12T12:59:12.849Z,73.90
2023-04-12T13:01:41.933Z,74.10
2023-04-12T13:04:11.323Z,74.20
2023-04-12T13:06:40.573Z,74.20
2023-04-12T13:09:09.662Z,74.30
2023-04-12T13:11:38.744Z,74.30
2023-04-12T13:14:07.808Z,74.30
2023-04-12T13:16:38.383Z,74.60
2023-04-12T13:19:07.445Z,75.00
2023-04-12T13:21:36.514Z,75.30
2023-04-12T13:24:05.645Z,75.70
2023-04-12T13:26:35.001Z,76.10
2023-04-12T13:29:04.057Z,76.50
2023-04-12T13:31:33.133Z,76.80
2023-04-12T13:34:03.638Z,77.20
2023-04-12T13:36:33.185Z,77.50
2023-04-12T13:39:02.579Z,77.70
2023-04-12T13:41:33.838Z,78.20
2023-04-12T13:44:02.706Z,78.40
2023-04-12T13:46:32.566Z,78.60
2023-04-12T13:49:03.111Z,78.40
2023-04-12T13:51:32.731Z,78.50
2023-04-12T13:54:02.332Z,78.90
2023-04-12T13:56:31.383Z,79.00
2023-04-12T13:59:00.834Z,79.10
2023-04-12T14:01:29.846Z,79.40
2023-04-12T14:03:58.970Z,79.70
2023-04-12T14:06:30.165Z,80.00
2023-04-12T14:08:59.620Z,80.20
2023-04-12T14:11:28.938Z,80.50
2023-04-12T14:13:57.900Z,80.50
2023-04-12T14:16:26.906Z,80.70
2023-04-12T14:18:56.145Z,80.80
2023-04-12T14:21:29.117Z,81.00
2023-04-12T14:23:59.672Z,81.30
2023-04-12T14:26:28.734Z,81.50
2023-04-12T14:28:57.844Z,81.80
2023-04-12T14:31:27.017Z,82.10
2023-04-12T14:33:56.067Z,82.50
2023-04-12T14:36:25.544Z,82.70
2023-04-12T14:38:54.607Z,83.10
2023-04-12T14:41:26.598Z,83.40
2023-04-12T14:43:56.004Z,83.70
2023-04-12T14:46:25.821Z,83.80
2023-04-12T14:48:55.406Z,83.90
2023-04-12T14:51:24.696Z,84.10
2023-04-12T14:53:53.718Z,84.50
2023-04-12T14:56:25.520Z,84.80
2023-04-12T14:58:56.971Z,85.10
2023-04-12T15:01:27.469Z,85.50
2023-04-12T15:03:57.229Z,85.80
2023-04-12T15:06:27.284Z,86.00
2023-04-12T15:08:57.424Z,86.50
2023-04-12T15:11:27.670Z,86.80
2023-04-12T15:13:58.318Z,87.10
2023-04-12T15:16:28.928Z,87.50
2023-04-12T15:19:00.443Z,87.40
2023-04-12T15:21:31.970Z,87.80
2023-04-12T15:24:00.991Z,88.00
2023-04-12T15:26:30.121Z,88.20
2023-04-12T15:29:00.609Z,88.30
2023-04-12T15:31:30.059Z,88.30
2023-04-12T15:34:00.363Z,88.40
2023-04-12T15:36:34.207Z,88.40
2023-04-12T15:39:04.748Z,88.50
2023-04-12T15:41:37.315Z,88.70
2023-04-12T15:44:08.852Z,88.70
2023-04-12T15:46:38.032Z,88.90
2023-04-12T15:49:07.042Z,89.00
2023-04-12T15:51:36.761Z,89.10
2023-04-12T15:54:07.692Z,89.30
2023-04-12T15:56:38.225Z,89.40
2023-04-12T15:59:09.202Z,89.50
2023-04-12T16:01:38.242Z,89.50
2023-04-12T16:04:07.549Z,89.60
2023-04-12T16:06:38.157Z,89.70
2023-04-12T16:09:07.265Z,89.80
2023-04-12T16:11:36.656Z,89.80
2023-04-12T16:14:05.998Z,90.00
2023-04-12T16:16:36.670Z,90.00
2023-04-12T16:19:05.754Z,90.00
2023-04-12T16:21:35.407Z,90.10
2023-04-12T16:24:05.026Z,90.10
2023-04-12T16:26:34.481Z,90.10
2023-04-12T16:29:03.698Z,90.10
2023-04-12T16:31:32.928Z,90.20
2023-04-12T16:34:03.487Z,90.20
2023-04-12T16:36:32.474Z,90.30
2023-04-12T16:39:06.320Z,90.30
2023-04-12T16:41:35.467Z,90.30
2023-04-12T16:44:04.517Z,90.30
2023-04-12T16:46:33.589Z,90.40
2023-04-12T16:49:04.884Z,90.50
2023-04-12T16:51:36.653Z,90.50
2023-04-12T16:54:06.590Z,90.50
2023-04-12T16:56:35.697Z,90.40
2023-04-12T16:59:05.139Z,90.40
2023-04-12T17:01:34.626Z,90.50
2023-04-12T17:04:05.196Z,90.50
2023-04-12T17:06:34.452Z,90.50
2023-04-12T17:09:03.683Z,90.50
2023-04-12T17:11:32.898Z,90.50
2023-04-12T17:14:02.174Z,90.50
2023-04-12T17:16:31.318Z,90.50
2023-04-12T17:19:00.473Z,90.50
2023-04-12T17:21:32.455Z,90.50
2023-04-12T17:24:01.629Z,90.50
2023-04-12T17:26:31.094Z,90.50
2023-04-12T17:29:01.866Z,90.50
2023-04-12T17:34:04.096Z,90.40
2023-04-12T17:36:34.875Z,90.40
2023-04-12T17:39:04.804Z,90.30
2023-04-12T17:41:34.045Z,90.30
2023-04-12T17:44:03.229Z,90.20
2023-04-12T17:46:33.191Z,90.20
2023-04-12T17:49:05.997Z,90.10
2023-04-12T17:51:36.615Z,90.00
2023-04-12T17:54:05.723Z,89.90
2023-04-12T17:56:34.884Z,89.80
2023-04-12T17:59:05.601Z,89.70
2023-04-12T18:01:37.075Z,89.60
2023-04-12T18:04:07.387Z,89.50
2023-04-12T18:06:39.505Z,89.40
2023-04-12T18:09:09.034Z,89.30
2023-04-12T18:11:39.042Z,89.30
2023-04-12T18:14:08.205Z,89.30
2023-04-12T18:16:37.883Z,89.40
2023-04-12T18:19:08.496Z,89.40
2023-04-12T18:21:38.983Z,89.50
2023-04-12T18:24:09.007Z,89.50
2023-04-12T18:26:38.110Z,89.40
2023-04-12T18:29:07.250Z,89.40
2023-04-12T18:31:39.376Z,89.50
2023-04-12T18:34:08.921Z,89.50
2023-04-12T18:36:39.676Z,89.50
2023-04-12T18:39:08.939Z,89.50
2023-04-12T18:41:37.946Z,89.50
2023-04-12T18:44:09.197Z,89.60
2023-04-12T18:46:38.047Z,89.50
2023-04-12T18:49:07.137Z,89.60
2023-04-12T18:51:38.459Z,89.30
2023-04-12T18:54:09.936Z,89.40
2023-04-12T18:56:38.843Z,89.30
2023-04-12T18:59:08.798Z,89.10
2023-04-12T19:01:37.905Z,89.10
2023-04-12T19:04:07.893Z,89.20
2023-04-12T19:06:38.672Z,89.00
2023-04-12T19:09:08.874Z,89.10
2023-04-12T19:11:38.004Z,89.00
2023-04-12T19:14:07.640Z,88.90
2023-04-12T19:16:36.891Z,88.90
2023-04-12T19:19:06.034Z,88.90
2023-04-12T19:21:35.528Z,89.00
2023-04-12T19:24:06.587Z,89.10
2023-04-12T19:26:38.680Z,89.20
2023-04-12T19:29:07.728Z,89.10
2023-04-12T19:31:36.841Z,89.10
2023-04-12T19:34:06.408Z,89.10
2023-04-12T19:36:35.762Z,89.00
2023-04-12T19:39:06.299Z,88.90
2023-04-12T19:41:35.412Z,88.80
2023-04-12T19:44:04.458Z,88.70
2023-04-12T19:46:34.439Z,88.60
2023-04-12T19:49:03.740Z,88.30
2023-04-12T19:51:32.913Z,88.20
2023-04-12T19:54:02.757Z,88.00
2023-04-12T19:56:33.169Z,87.90
2023-04-12T19:59:02.692Z,87.70
2023-04-12T20:01:47.858Z,87.70
2023-04-12T20:04:17.261Z,87.50
2023-04-12T20:06:46.329Z,87.60
2023-04-12T20:09:15.469Z,87.50
2023-04-12T20:11:46.346Z,87.50
2023-04-12T20:14:15.371Z,87.50
2023-04-12T20:16:45.574Z,87.50
2023-04-12T20:19:16.457Z,87.40
2023-04-12T20:21:45.573Z,87.40
2023-04-12T20:24:14.598Z,87.30
2023-04-12T20:26:51.604Z,87.30
2023-04-12T20:29:20.738Z,88.20
2023-04-12T20:31:51.575Z,87.30
2023-04-12T20:34:21.178Z,87.20
2023-04-12T20:36:50.183Z,87.20
2023-04-12T20:39:19.152Z,87.10
2023-04-12T20:41:51.035Z,86.90
2023-04-12T20:44:20.412Z,86.90
2023-04-12T20:46:49.568Z,86.80
2023-04-12T20:49:19.310Z,86.60
2023-04-12T20:51:50.006Z,86.50
2023-04-12T20:54:19.816Z,87.30
2023-04-12T20:56:50.513Z,86.40
2023-04-12T20:59:22.908Z,86.40
2023-04-12T21:01:52.159Z,86.30
2023-04-12T21:04:22.554Z,86.20
2023-04-12T21:06:55.552Z,86.10
2023-04-12T21:09:24.842Z,86.00
2023-04-12T21:11:56.240Z,86.00
2023-04-12T21:14:25.452Z,85.90
2023-04-12T21:16:54.450Z,85.80
2023-04-12T21:19:23.561Z,85.70
2023-04-12T21:21:52.544Z,85.80
2023-04-12T21:24:21.864Z,85.70
2023-04-12T21:26:57.598Z,85.70
2023-04-12T21:29:26.688Z,85.60
2023-04-12T21:31:56.262Z,85.70
2023-04-12T21:34:25.346Z,85.70
2023-04-12T21:36:55.307Z,85.70
2023-04-12T21:39:28.576Z,85.80
2023-04-12T21:41:59.193Z,85.90
2023-04-12T21:44:28.322Z,85.80
2023-04-12T21:46:57.313Z,85.90
2023-04-12T21:49:26.963Z,85.90
2023-04-12T21:51:57.081Z,85.80
2023-04-12T21:54:28.920Z,85.90
2023-04-12T21:56:59.812Z,85.90
2023-04-12T21:59:28.886Z,85.80
2023-04-12T22:01:57.989Z,85.90
2023-04-12T22:04:27.272Z,85.90
2023-04-12T22:06:58.198Z,85.90
2023-04-12T22:09:27.271Z,85.90
2023-04-12T22:11:56.859Z,86.00
2023-04-12T22:14:28.858Z,86.00
2023-04-12T22:16:59.157Z,86.10
2023-04-12T22:19:28.489Z,86.20
2023-04-12T22:21:57.500Z,86.20
2023-04-12T22:24:26.549Z,86.20
2023-04-12T22:26:57.628Z,86.30
2023-04-12T22:29:28.094Z,86.20
2023-04-12T22:31:57.165Z,86.30
2023-04-12T22:34:27.595Z,86.30
2023-04-12T22:36:58.963Z,86.30
2023-04-12T22:39:28.349Z,86.50
2023-04-12T22:41:58.069Z,86.50
2023-04-12T22:44:29.296Z,86.70
2023-04-12T22:46:58.254Z,86.70
2023-04-12T22:49:28.653Z,86.70
2023-04-12T22:51:58.453Z,86.60
2023-04-12T22:54:27.960Z,86.60
2023-04-12T22:56:57.005Z,86.50
2023-04-12T22:59:28.051Z,86.40
2023-04-12T23:01:57.612Z,86.30
2023-04-12T23:04:26.691Z,86.30
2023-04-12T23:06:56.274Z,86.30
2023-04-12T23:09:25.628Z,86.30
2023-04-12T23:11:54.682Z,86.20
2023-04-12T23:14:23.970Z,86.20
2023-04-12T23:16:54.622Z,86.20
2023-04-12T23:19:23.699Z,86.30
2023-04-12T23:21:54.581Z,86.20
2023-04-12T23:24:23.639Z,86.00
2023-04-12T23:26:52.707Z,86.00
2023-04-12T23:29:21.768Z,86.00
2023-04-12T23:31:51.464Z,86.00
2023-04-12T23:34:22.199Z,86.00
2023-04-12T23:36:51.337Z,86.00
2023-04-12T23:39:20.394Z,86.00
2023-04-12T23:41:49.390Z,86.00
2023-04-12T23:44:18.376Z,85.90
2023-04-12T23:46:48.016Z,85.90
2023-04-12T23:49:17.118Z,85.80
2023-04-12T23:51:47.502Z,85.70
2023-04-12T23:54:16.701Z,85.60
2023-04-12T23:56:46.615Z,85.60
2023-04-12T23:59:15.853Z,85.60
